createdAt,value
2022-10-01T00:01:21.388Z,100626.13
2022-10-01T00:04:24.682Z,100615.50
2022-10-01T00:07:27.491Z,100619.91
2022-10-01T00:10:30.291Z,100617.25
2022-10-01T00:13:33.179Z,100612.84
2022-10-01T00:16:35.275Z,100615.50
2022-10-01T00:19:37.616Z,100611.97
2022-10-01T00:22:40.125Z,100599.56
2022-10-01T00:25:43.631Z,100605.78
2022-10-01T00:28:47.479Z,100611.09
2022-10-01T00:31:50.042Z,100619.09
2022-10-01T00:34:53.717Z,100624.38
2022-10-01T00:37:56.012Z,100614.63
2022-10-01T00:40:58.617Z,100627.97
2022-10-01T00:44:32.171Z,100622.69
2022-10-01T00:47:41.031Z,100616.47
2022-10-01T00:50:43.715Z,100613.78
2022-10-01T00:53:46.347Z,100623.50
2022-10-01T00:56:51.661Z,100622.63
2022-10-01T00:59:57.350Z,100624.41
2022-10-01T01:02:59.640Z,100619.13
2022-10-01T01:06:01.744Z,100619.97
2022-10-01T01:09:04.310Z,100617.31
2022-10-01T01:12:31.869Z,100607.59
2022-10-01T01:15:38.955Z,100604.06
2022-10-01T01:18:47.913Z,100613.78
2022-10-01T01:21:55.407Z,100627.97
2022-10-01T01:25:07.720Z,100623.53
2022-10-01T01:28:26.774Z,100610.25
2022-10-01T01:31:39.703Z,100604.94
2022-10-01T01:34:45.553Z,100611.16
2022-10-01T01:37:52.197Z,100610.28
2022-10-01T01:40:57.973Z,100614.72
2022-10-01T01:44:02.332Z,100615.59
2022-10-01T01:47:07.444Z,100627.09
2022-10-01T01:50:10.937Z,100617.34
2022-10-01T01:53:15.167Z,100628.88
2022-10-01T01:56:17.672Z,100628.88
2022-10-01T01:59:20.518Z,100634.22
2022-10-01T02:02:28.616Z,100639.53
2022-10-01T02:05:43.250Z,100645.75
2022-10-01T02:08:53.656Z,100641.28
2022-10-01T02:12:26.628Z,100644.84
2022-10-01T02:15:55.210Z,100651.06
2022-10-01T02:19:05.713Z,100661.69
2022-10-01T02:22:20.100Z,100661.69
2022-10-01T02:25:27.010Z,100666.97
2022-10-01T02:28:31.787Z,100659.03
2022-10-01T02:31:35.158Z,100657.25
2022-10-01T02:34:38.532Z,100651.06
2022-10-01T02:37:42.832Z,100640.41
2022-10-01T02:40:46.455Z,100638.66
2022-10-01T02:43:59.338Z,100636.88
2022-10-01T02:47:10.867Z,100623.59
2022-10-01T02:50:14.175Z,100616.50
2022-10-01T02:53:27.597Z,100603.22
2022-10-01T02:56:49.539Z,100612.09
2022-10-01T03:00:01.184Z,100584.63
2022-10-01T03:03:03.753Z,100579.31
2022-10-01T03:06:05.983Z,100574.00
2022-10-01T03:09:08.844Z,100565.16
2022-10-01T03:12:11.080Z,100554.53
2022-10-01T03:15:15.912Z,100562.47
2022-10-01T03:18:17.919Z,100561.59
2022-10-01T03:21:20.188Z,100562.50
2022-10-01T03:24:22.648Z,100566.94
2022-10-01T03:27:25.009Z,100574.00
2022-10-01T03:30:27.129Z,100582.88
2022-10-01T03:33:29.738Z,100600.56
2022-10-01T03:36:31.904Z,100598.81
2022-10-01T03:39:34.495Z,100598.81
2022-10-01T03:42:36.577Z,100597.03
2022-10-01T03:45:39.418Z,100599.69
2022-10-01T03:48:41.502Z,100597.03
2022-10-01T03:51:45.171Z,100597.91
2022-10-01T03:54:47.395Z,100600.56
2022-10-01T03:57:50.204Z,100604.97
2022-10-01T04:00:54.341Z,100607.63
2022-10-01T04:03:56.685Z,100609.34
2022-10-01T04:06:58.714Z,100604.03
2022-10-01T04:10:00.967Z,100607.53
2022-10-01T04:13:03.154Z,100602.19
2022-10-01T04:16:06.895Z,100602.16
2022-10-01T04:19:09.135Z,100598.59
2022-10-01T04:22:11.499Z,100592.31
2022-10-01T04:25:13.997Z,100599.38
2022-10-01T04:28:16.629Z,100594.88
2022-10-01T04:31:24.797Z,100592.19
2022-10-01T04:34:47.093Z,100578.84
2022-10-01T04:38:03.584Z,100589.41
2022-10-01T04:41:06.105Z,100595.53
2022-10-01T04:44:08.141Z,100595.50
2022-10-01T04:47:10.436Z,100599.03
2022-10-01T04:50:12.574Z,100606.00
2022-10-01T04:53:15.077Z,100599.75
2022-10-01T04:56:17.135Z,100588.25
2022-10-01T04:59:19.417Z,100595.16
2022-10-01T05:02:21.624Z,100592.50
2022-10-01T05:05:25.216Z,100593.41
2022-10-01T05:08:27.223Z,100601.25
2022-10-01T05:11:29.805Z,100600.38
2022-10-01T05:14:32.877Z,100607.47
2022-10-01T05:17:36.373Z,100600.38
2022-10-01T05:20:38.470Z,100595.94
2022-10-01T05:23:40.895Z,100602.88
2022-10-01T05:26:42.937Z,100601.97
2022-10-01T05:29:46.220Z,100610.84
2022-10-01T05:32:56.473Z,100603.88
2022-10-01T05:35:59.087Z,100600.31
2022-10-01T05:39:01.827Z,100595.88
2022-10-01T05:42:06.511Z,100599.44
2022-10-01T05:45:09.762Z,100603.84
2022-10-01T05:48:12.894Z,100596.75
2022-10-01T05:51:16.221Z,100601.22
2022-10-01T05:54:19.563Z,100595.06
2022-10-01T05:57:21.787Z,100596.00
2022-10-01T06:00:24.806Z,100599.56
2022-10-01T06:03:30.126Z,100593.38
2022-10-01T06:06:32.460Z,100595.13
2022-10-01T06:09:34.501Z,100589.84
2022-10-01T06:12:36.821Z,100596.97
2022-10-01T06:15:39.099Z,100590.75
2022-10-01T06:18:42.102Z,100590.84
2022-10-01T06:21:44.149Z,100585.63
2022-10-01T06:24:46.610Z,100582.13
2022-10-01T06:27:58.054Z,100582.16
2022-10-01T06:31:03.933Z,100581.34
2022-10-01T06:34:06.093Z,100575.25
2022-10-01T06:37:08.286Z,100579.75
2022-10-01T06:40:10.580Z,100574.47
2022-10-01T06:43:12.823Z,100579.00
2022-10-01T06:46:15.055Z,100565.81
2022-10-01T06:49:20.592Z,100567.59
2022-10-01T06:52:41.117Z,100561.47
2022-10-01T06:55:44.247Z,100560.63
2022-10-01T06:58:46.635Z,100567.72
2022-10-01T07:01:54.181Z,100549.16
2022-10-01T07:04:59.398Z,100562.47
2022-10-01T07:08:02.023Z,100566.91
2022-10-01T07:11:05.490Z,100553.63
2022-10-01T07:14:08.443Z,100559.84
2022-10-01T07:17:10.652Z,100556.31
2022-10-01T07:20:14.864Z,100550.94
2022-10-01T07:23:17.457Z,100553.53
2022-10-01T07:26:19.869Z,100531.34
2022-10-01T07:29:24.002Z,100549.81
2022-10-01T07:32:26.429Z,100546.13
2022-10-01T07:35:29.749Z,100557.59
2022-10-01T07:38:33.529Z,100555.72
2022-10-01T07:41:35.916Z,100557.38
2022-10-01T07:44:38.723Z,100557.16
2022-10-01T07:47:42.090Z,100559.78
2022-10-01T07:50:45.550Z,100556.06
2022-10-01T07:53:47.883Z,100557.75
2022-10-01T07:56:53.061Z,100567.38
2022-10-01T07:59:56.123Z,100552.94
2022-10-01T08:02:58.810Z,100566.06
2022-10-01T08:06:03.438Z,100563.00
2022-10-01T08:09:06.322Z,100557.41
2022-10-01T08:12:08.447Z,100542.84
2022-10-01T08:15:12.339Z,100547.75
2022-10-01T08:18:14.956Z,100545.09
2022-10-01T08:21:18.104Z,100542.91
2022-10-01T08:24:20.464Z,100540.97
2022-10-01T08:27:26.579Z,100526.63
2022-10-01T08:30:29.720Z,100527.81
2022-10-01T08:33:31.957Z,100516.47
2022-10-01T08:36:35.785Z,100513.16
2022-10-01T08:39:38.034Z,100506.19
2022-10-01T08:43:07.554Z,100508.38
2022-10-01T08:46:18.061Z,100496.34
2022-10-01T08:49:32.026Z,100501.06
2022-10-01T08:52:38.592Z,100504.06
2022-10-01T08:55:41.642Z,100487.31
2022-10-01T08:58:45.834Z,100479.16
2022-10-01T09:01:48.568Z,100483.03
2022-10-01T09:05:01.238Z,100479.22
2022-10-01T09:08:43.834Z,100480.75
2022-10-01T09:12:02.137Z,100467.28
2022-10-01T09:15:41.963Z,100472.56
2022-10-01T09:19:10.944Z,100473.81
2022-10-01T09:22:26.105Z,100470.91
2022-10-01T09:25:28.873Z,100461.66
2022-10-01T09:28:33.630Z,100462.81
2022-10-01T09:31:41.152Z,100456.47
2022-10-01T09:34:44.921Z,100463.72
2022-10-01T09:38:00.789Z,100453.44
2022-10-01T09:41:03.788Z,100454.19
2022-10-01T09:44:09.125Z,100452.63
2022-10-01T09:47:17.844Z,100458.25
2022-10-01T09:50:33.359Z,100455.69
2022-10-01T09:53:41.510Z,100454.66
2022-10-01T09:56:53.780Z,100458.00
2022-10-01T10:00:11.993Z,100462.13
2022-10-01T10:03:33.303Z,100464.72
2022-10-01T10:06:35.860Z,100455.59
2022-10-01T10:09:38.496Z,100455.88
2022-10-01T10:12:42.080Z,100452.28
2022-10-01T10:15:57.615Z,100452.22
2022-10-01T10:19:10.627Z,100428.28
2022-10-01T10:22:24.948Z,100424.31
2022-10-01T10:25:27.517Z,100417.66
2022-10-01T10:28:43.665Z,100410.78
2022-10-01T10:31:46.818Z,100407.63
2022-10-01T10:34:49.619Z,100405.94
2022-10-01T10:37:57.232Z,100409.59
2022-10-01T10:41:00.358Z,100406.41
2022-10-01T10:44:06.451Z,100392.41
2022-10-01T10:47:15.076Z,100378.94
2022-10-01T10:50:30.001Z,100376.56
2022-10-01T10:53:46.400Z,100377.63
2022-10-01T10:56:57.915Z,100362.66
2022-10-01T11:00:02.074Z,100362.84
2022-10-01T11:03:06.408Z,100354.69
2022-10-01T11:06:14.813Z,100362.25
2022-10-01T11:09:18.629Z,100355.28
2022-10-01T11:12:58.545Z,100345.03
2022-10-01T11:16:26.715Z,100349.13
2022-10-01T11:20:07.767Z,100340.91
2022-10-01T11:23:16.103Z,100319.19
2022-10-01T11:26:38.157Z,100319.53
2022-10-01T11:30:18.026Z,100308.84
2022-10-01T11:33:35.385Z,100309.31
2022-10-01T11:36:45.917Z,100297.97
2022-10-01T11:39:52.096Z,100306.13
2022-10-01T11:42:59.695Z,100296.97
2022-10-01T11:46:11.392Z,100292.25
2022-10-01T11:49:30.886Z,100284.66
2022-10-01T11:52:39.054Z,100279.22
2022-10-01T11:56:00.080Z,100284.28
2022-10-01T11:59:10.093Z,100283.00
2022-10-01T12:02:23.923Z,100274.19
2022-10-01T12:05:31.509Z,100273.28
2022-10-01T12:08:36.787Z,100260.31
2022-10-01T12:12:20.279Z,100262.25
2022-10-01T12:15:41.753Z,100253.91
2022-10-01T12:18:57.102Z,100266.25
2022-10-01T12:22:05.509Z,100257.56
2022-10-01T12:25:13.244Z,100244.47
2022-10-01T12:28:27.751Z,100239.59
2022-10-01T12:32:10.068Z,100245.44
2022-10-01T12:35:17.838Z,100239.66
2022-10-01T12:38:51.582Z,100230.50
2022-10-01T12:42:31.425Z,100231.34
2022-10-01T12:45:56.528Z,100204.00
2022-10-01T12:49:38.411Z,100214.50
2022-10-01T12:53:00.546Z,100204.91
2022-10-01T12:56:07.315Z,100210.25
2022-10-01T12:59:41.056Z,100192.66
2022-10-01T13:03:14.117Z,100197.81
2022-10-01T13:06:32.890Z,100200.09
2022-10-01T13:10:04.359Z,100195.56
2022-10-01T13:13:12.962Z,100194.28
2022-10-01T13:16:18.485Z,100195.72
2022-10-01T13:19:37.652Z,100197.81
2022-10-01T13:23:10.760Z,100193.03
2022-10-01T13:26:32.819Z,100187.94
2022-10-01T13:29:43.784Z,100186.38
2022-10-01T13:32:54.330Z,100184.06
2022-10-01T13:35:59.234Z,100182.41
2022-10-01T13:39:02.099Z,100177.59
2022-10-01T13:42:05.631Z,100183.88
2022-10-01T13:45:40.949Z,100178.41
2022-10-01T13:48:48.144Z,100179.53
2022-10-01T13:51:52.127Z,100174.00
2022-10-01T13:54:55.983Z,100166.75
2022-10-01T13:58:35.860Z,100158.06
2022-10-01T14:01:42.285Z,100148.78
2022-10-01T14:04:45.787Z,100139.16
2022-10-01T14:07:50.821Z,100147.78
2022-10-01T14:11:19.180Z,100144.44
2022-10-01T14:14:47.798Z,100134.34
2022-10-01T14:17:53.283Z,100132.25
2022-10-01T14:20:55.301Z,100134.22
2022-10-01T14:24:19.852Z,100129.09
2022-10-01T14:27:48.329Z,100128.34
2022-10-01T14:31:06.382Z,100127.69
2022-10-01T14:34:11.648Z,100115.88
2022-10-01T14:37:17.608Z,100101.97
2022-10-01T14:40:22.544Z,100102.69
2022-10-01T14:43:30.593Z,100110.75
2022-10-01T14:46:36.165Z,100092.94
2022-10-01T14:49:39.101Z,100100.91
2022-10-01T14:52:47.152Z,100094.53
2022-10-01T14:55:53.091Z,100093.97
2022-10-01T14:59:01.882Z,100083.81
2022-10-01T15:02:17.829Z,100079.53
2022-10-01T15:05:42.480Z,100072.00
2022-10-01T15:08:47.994Z,100073.88
2022-10-01T15:11:51.500Z,100080.97
2022-10-01T15:14:54.626Z,100068.06
2022-10-01T15:17:56.747Z,100076.97
2022-10-01T15:21:02.565Z,100070.97
2022-10-01T15:24:06.774Z,100064.09
2022-10-01T15:27:11.765Z,100067.56
2022-10-01T15:30:15.679Z,100055.22
2022-10-01T15:33:29.545Z,100054.34
2022-10-01T15:36:32.291Z,100053.31
2022-10-01T15:39:39.807Z,100044.41
2022-10-01T15:43:07.593Z,100043.47
2022-10-01T15:46:15.752Z,100039.78
2022-10-01T15:49:25.009Z,100036.25
2022-10-01T15:52:46.368Z,100023.81
2022-10-01T15:55:53.519Z,100032.94
2022-10-01T15:59:01.510Z,100031.53
2022-10-01T16:02:09.251Z,100022.34
2022-10-01T16:05:17.588Z,100025.22
2022-10-01T16:08:22.113Z,100018.38
2022-10-01T16:11:27.739Z,100006.03
2022-10-01T16:14:39.373Z,100003.34
2022-10-01T16:17:54.504Z,100013.34
2022-10-01T16:20:56.948Z,100007.41
2022-10-01T16:23:59.289Z,99989.66
2022-10-01T16:27:02.136Z,99980.00
2022-10-01T16:30:07.531Z,99983.28
2022-10-01T16:33:11.024Z,99981.75
2022-10-01T16:36:19.855Z,99985.22
2022-10-01T16:39:23.179Z,99978.94
2022-10-01T16:42:26.000Z,99975.75
2022-10-01T16:45:34.210Z,99977.28
2022-10-01T16:48:36.898Z,99976.34
2022-10-01T16:51:40.992Z,99976.56
2022-10-01T16:54:44.528Z,99973.28
2022-10-01T16:57:46.586Z,99980.50
2022-10-01T17:00:49.364Z,99968.31
2022-10-01T17:03:51.529Z,99961.84
2022-10-01T17:06:53.916Z,99964.53
2022-10-01T17:09:55.954Z,99967.34
2022-10-01T17:12:59.690Z,99962.78
2022-10-01T17:16:02.474Z,99962.81
2022-10-01T17:19:05.022Z,99965.03
2022-10-01T17:22:08.085Z,99964.00
2022-10-01T17:25:18.913Z,99959.41
2022-10-01T17:28:21.153Z,99939.00
2022-10-01T17:31:23.610Z,99943.50
2022-10-01T17:34:26.142Z,99947.03
2022-10-01T17:37:28.416Z,99944.34
2022-10-01T17:40:30.477Z,99939.97
2022-10-01T17:43:32.897Z,99936.53
2022-10-01T17:46:35.238Z,99941.13
2022-10-01T17:49:37.844Z,99935.66
2022-10-01T17:52:40.020Z,99943.81
2022-10-01T17:55:42.745Z,99932.44
2022-10-01T17:58:46.260Z,99934.97
2022-10-01T18:01:49.351Z,99936.09
2022-10-01T18:04:51.597Z,99940.66
2022-10-01T18:07:53.996Z,99922.91
2022-10-01T18:11:10.983Z,99928.25
2022-10-01T18:14:13.628Z,99923.78
2022-10-01T18:17:16.178Z,99925.56
2022-10-01T18:20:22.515Z,99928.25
2022-10-01T18:23:24.759Z,99925.56
2022-10-01T18:26:27.519Z,99920.22
2022-10-01T18:29:29.686Z,99908.81
2022-10-01T18:32:37.789Z,99909.75
2022-10-01T18:35:43.769Z,99904.53
2022-10-01T18:38:51.094Z,99900.13
2022-10-01T18:41:53.434Z,99902.84
2022-10-01T18:44:57.968Z,99895.84
2022-10-01T18:48:21.714Z,99908.44
2022-10-01T18:51:52.334Z,99896.09
2022-10-01T18:55:21.311Z,99894.47
2022-10-01T18:58:42.384Z,99883.06
2022-10-01T19:02:11.470Z,99887.59
2022-10-01T19:05:19.713Z,99879.72
2022-10-01T19:08:37.559Z,99872.66
2022-10-01T19:11:44.878Z,99886.09
2022-10-01T19:15:18.433Z,99885.28
2022-10-01T19:18:20.692Z,99880.03
2022-10-01T19:21:53.820Z,99884.66
2022-10-01T19:25:33.884Z,99879.38
2022-10-01T19:32:44.048Z,99885.88
2022-10-01T19:35:50.573Z,99869.00
2022-10-01T19:38:55.276Z,99872.69
2022-10-01T19:42:21.301Z,99869.16
2022-10-01T19:45:26.951Z,99861.22
2022-10-01T19:48:53.235Z,99858.63
2022-10-01T19:52:05.406Z,99856.81
2022-10-01T19:55:15.962Z,99852.41
2022-10-01T19:58:20.094Z,99853.41
2022-10-01T20:01:25.221Z,99843.66
2022-10-01T20:04:38.134Z,99843.63
2022-10-01T20:08:06.385Z,99854.28
2022-10-01T20:11:27.195Z,99845.47
2022-10-01T20:14:51.105Z,99845.53
2022-10-01T20:18:17.687Z,99838.47
2022-10-01T20:21:35.876Z,99840.25
2022-10-01T20:24:40.532Z,99845.69
2022-10-01T20:27:55.012Z,99855.47
2022-10-01T20:31:11.188Z,99839.72
2022-10-01T20:34:27.587Z,99847.09
2022-10-01T20:37:53.039Z,99850.69
2022-10-01T20:40:57.699Z,99851.59
2022-10-01T20:44:02.114Z,99845.41
2022-10-01T20:47:37.426Z,99845.25
2022-10-01T20:50:45.687Z,99840.03
2022-10-01T20:54:07.403Z,99844.44
2022-10-01T20:57:42.809Z,99863.06
2022-10-01T21:00:46.371Z,99876.47
2022-10-01T21:03:54.087Z,99875.09
2022-10-01T21:07:02.383Z,99881.41
2022-10-01T21:10:44.962Z,99881.56
2022-10-01T21:14:03.695Z,99877.97
2022-10-01T21:17:28.018Z,99878.63
2022-10-01T21:20:54.632Z,99878.56
2022-10-01T21:24:15.412Z,99877.56
2022-10-01T21:27:17.887Z,99882.84
2022-10-01T21:30:21.516Z,99886.22
2022-10-01T21:33:54.266Z,99882.47
2022-10-01T21:37:05.565Z,99885.16
2022-10-01T21:40:22.771Z,99881.66
2022-10-01T21:43:37.146Z,99885.09
2022-10-01T21:46:58.951Z,99891.16
2022-10-01T21:50:22.727Z,99884.94
2022-10-01T21:53:37.968Z,99884.84
2022-10-01T21:56:43.232Z,99883.09
2022-10-01T22:00:13.311Z,99882.19
2022-10-01T22:03:55.367Z,99883.91
2022-10-01T22:07:25.540Z,99896.34
2022-10-01T22:10:36.742Z,99891.03
2022-10-01T22:13:52.335Z,99886.66
2022-10-01T22:16:58.489Z,99885.78
2022-10-01T22:20:03.528Z,99888.44
2022-10-01T22:23:11.272Z,99885.81
2022-10-01T22:26:17.728Z,99883.31
2022-10-01T22:29:25.549Z,99891.97
2022-10-01T22:32:31.871Z,99897.28
2022-10-01T22:35:45.982Z,99890.31
2022-10-01T22:38:57.347Z,99887.72
2022-10-01T22:42:07.517Z,99888.66
2022-10-01T22:45:13.762Z,99887.63
2022-10-01T22:48:21.991Z,99898.25
2022-10-01T22:51:44.142Z,99901.84
2022-10-01T22:55:11.215Z,99900.16
2022-10-01T22:58:32.332Z,99901.28
2022-10-01T23:02:03.757Z,99896.06
2022-10-01T23:05:44.659Z,99902.16
2022-10-01T23:09:07.785Z,99901.38
2022-10-01T23:12:35.167Z,99906.03
2022-10-01T23:15:40.302Z,99910.28
2022-10-01T23:18:53.786Z,99907.53
2022-10-01T23:22:14.725Z,99912.94
2022-10-01T23:25:57.922Z,99918.31
2022-10-01T23:29:40.453Z,99916.72
2022-10-01T23:32:45.615Z,99918.50
2022-10-01T23:36:05.955Z,99916.66
2022-10-01T23:39:26.467Z,99916.81
2022-10-01T23:42:35.053Z,99922.25
2022-10-01T23:45:44.649Z,99917.84
2022-10-01T23:48:53.588Z,99920.66
2022-10-01T23:51:59.688Z,99919.69
2022-10-01T23:55:32.946Z,99928.56
2022-10-01T23:58:40.925Z,99923.34
